Terminal Aerodrome Forecast
Issued by NWS Miami, FL

Home | Current Version | Previous Version | Text Only | Print | Product List | Glossary On
Versions: 1 2 3 4 5 6 7 8 9 10 11 12 13 14 15 16 17 18 19 20 21 22 23 24 25 26 27 28 29 30 31 32 33 34 35 36 37 38 39 40 41
000
FTUS42 KMFL 061134
TAFAPF
TAF
KAPF 061134Z 0612/0712 03006KT P6SM VCSH SKC
     FM061500 02009KT P6SM VCSH SCT025
     FM061800 31012KT P6SM VCSH SCT025
     FM070000 01005KT P6SM SKC
     FM070600 VRB03KT P6SM SKC=

USA.gov is the U.S. government's official web portal to all federal, state and local government web resources and services.